• Join FlightAware (Why Join?)
  • Login
  • US Flag 
08:26AM EDT


 

Airport Tracker/Info


-or-


 

Live Flight TrackerFlight Track Log ✈ N918FA ✈ 26-May-2013 ✈ KARB - KDET

Flight Track Log - Related Links

Times and Time Zones

All times are in EDT time to prevent confusion due to time zone crossing. See the N918FA flight status page for this flight to view local times or setup timezone preferences in your user account.

Time Position Orientation Groundspeed Altitude Reporting Facility
EDT Latitude Longitude Course Direction KTS MPH feet Rate Location/Type
06:59PM 42.2272 -83.7378 71° East 66 76 1,100  Level Cleveland Center
07:00PM 42.2339 -83.7269 50° Northeast 62 71 1,400 480 Climbing Cleveland Center
07:01PM 42.2320 -83.7106 71° East  Level Estimated
07:01PM 42.2447 -83.7081 52° Northeast 75 86 1,900  Level Cleveland Center
07:02PM 42.2410 -83.6757 71° East  Level Estimated
07:02PM 42.2619 -83.6919 35° Northeast 71 82 2,500  Level Cleveland Center
07:03PM 42.2499 -83.6407 71° East  Level Estimated
07:03PM 42.2811 -83.6761 31° Northeast 74 85 3,000  Level Cleveland Center
07:04PM 42.2589 -83.6057 71° East  Level Estimated
07:04PM 42.3044 -83.6519 37° Northeast 110 127 2,900  Level Cleveland Center
07:05PM 42.3217 -83.6331 39° Northeast 96 110 2,900  Level Cleveland Center
07:06PM 42.3453 -83.6089 37° Northeast 98 113 3,000  Climbing Cleveland Center
07:07PM 42.3689 -83.5875 34° Northeast 102 117 2,900 -60 Descending Cleveland Center
07:08PM 42.3761 -83.5486 76° East 100 115 2,900  Level Cleveland Center
07:09PM 42.3875 -83.5125 67° East 100 115 2,900  Level Cleveland Center
07:10PM 42.4008 -83.4794 61° Northeast 100 115 3,000  Climbing Cleveland Center
07:11PM 42.4122 -83.4406 68° East 109 125 3,000  Level Cleveland Center
07:12PM 42.4256 -83.4075 61° Northeast 102 117 3,000 -60 Level Cleveland Center
07:13PM 42.4367 -83.3742 66° East 101 116 2,900  Descending Cleveland Center
07:14PM 42.4500 -83.3381 63° Northeast 103 119 3,000  Climbing Cleveland Center
07:15PM 42.4553 -83.2989 80° East 108 124 2,900  Descending Cleveland Center
07:16PM 42.4478 -83.2564 103° East 115 132 3,000  Climbing Cleveland Center
07:17PM 42.4425 -83.2139 100° East 110 127 3,000 -120 Level Cleveland Center
07:18PM 42.4353 -83.1742 104° East 100 115 2,800 -480 Descending Cleveland Center
07:19PM 42.4339 -83.1347 93° East 99 114 2,100 -600 Descending Cleveland Center
07:20PM 42.4328 -83.0983 92° East 97 112 1,700 -360 Descending Cleveland Center
07:21PM 42.4356 -83.0675 83° East 86 99 1,500 -240 Descending Cleveland Center
07:22PM 42.4361 -83.0392 88° East 79 91 1,300 -240 Descending Cleveland Center
07:24PM 42.4093 -83.0102 90° East  Level Estimated
07:31PM 42.4093 -83.0102 90° East  Level Estimated
07:32PM 42.4093 -83.0102 90° East  Level Estimated